アラート の空港の天気 - METARとTAF

Alert Airport ( CYLT / YLT ) - カナダ ヌナブト準州アラート
飛行場実況気象(Metar)
観測時間10/18 16:00 EDT (10/18 20:00 UTC)
風向・風速北西 3m/s
視程8050m
天気現象弱い雪 もや
全天の8割程度の雲 雲底高度 270m
全天を覆う雲 雲底高度 1070m
気温-16℃
湿度92%
気圧1017.2hPa
METARCYLT 182000Z 31005KT 5SM -SN BR BKN009 OVC035 M16/M17 A3003 RMK ST6SC2 LAST OBS/NEXT 211200 UTC SLP172
過去の天気等 Google飛行場航空写真 Wunderground天気予報

過去48時間のMETAR

飛行場予報(TAF)
データがありません